Latest Weather Observations for Cape Leeuwin

IDW60801

Issued at 4:03 am WST Monday 25 July 2016 (issued every 30 minutes, with the page automatically refreshed every 10 minutes)

About weather observations | Map of weather stations | Latest weather observations for WA | Other Formats
Station Details ID: 009518 Name: CAPE LEEUWIN Lat: -34.37 Lon: 115.14 Height: 13.0 m
Data from the previous 72 hours. | See also: Recent months at Cape Leeuwin
Date/Time
WST
Temp
°C
App
Temp
°C
Dew
Point
°C
Rel
Hum
%
Delta-T
°C
Wind Press
QNH
hPa
Press
MSL
hPa
Rain since
9am
mm
Dir  Spd
km/h
Gust
km/h
Spd
kts
Gust
kts
25/04:00am 12.6 8.5 11.3 92 0.7 WSW 24 30 13 16 1026.3 1026.3 1.6
25/03:30am 12.8 6.9 11.1 89 0.9 SW 33 39 18 21 1026.4 1026.4 1.6
25/03:00am 12.9 8.2 9.3 79 1.8 SW 24 32 13 17 1026.4 1026.4 1.6
25/02:30am 12.5 9.4 10.4 87 1.1 SSW 17 22 9 12 1026.5 1026.5 1.6
25/02:00am 13.4 8.2 8.8 74 2.3 SW 26 35 14 19 1026.5 1026.5 1.2
25/01:30am 13.0 8.4 9.7 80 1.7 WSW 24 30 13 16 1026.6 1026.6 1.2
25/01:00am 13.8 8.7 7.7 66 3.0 SW 24 32 13 17 1026.4 1026.4 1.2
25/12:30am 13.6 7.8 6.2 61 3.5 SW 26 35 14 19 1026.7 1026.7 1.2
25/12:00am 13.4 6.4 6.0 61 3.5 SW 32 39 17 21 1026.8 1026.8 1.2
 
Date/Time
WST
Temp
°C
App
Temp
°C
Dew
Point
°C
Rel
Hum
%
Delta-T
°C
Wind Press
QNH
hPa
Press
MSL
hPa
Rain since
9am
mm
Dir  Spd
km/h
Gust
km/h
Spd
kts
Gust
kts
24/11:30pm 13.4 7.5 7.4 67 2.9 SW 28 37 15 20 1026.8 1026.8 1.2
24/11:00pm 13.5 7.6 7.6 67 2.9 WSW 28 35 15 19 1026.7 1026.7 1.2
24/10:30pm 13.1 7.2 7.5 69 2.7 WSW 28 35 15 19 1026.7 1026.7 1.2
24/10:00pm 12.3 7.6 9.1 81 1.6 WSW 24 33 13 18 1027.1 1027.1 1.2
24/09:44pm 12.8 7.5 9.9 82 1.5 WSW 28 50 15 27 1027.1 1027.1 1.2
24/09:30pm 13.2 7.2 8.8 74 2.2 WSW 30 37 16 20 1027.1 1027.1 1.2
24/09:00pm 13.6 7.7 7.7 67 2.9 WSW 28 39 15 21 1027.1 1027.1 1.2
24/08:30pm 13.5 6.9 7.8 68 2.8 WSW 32 43 17 23 1027.1 1027.1 1.2
24/08:00pm 13.2 6.5 8.3 72 2.4 SW 33 44 18 24 1027.0 1027.0 1.2
24/07:30pm 13.1 7.1 10.2 82 1.5 WSW 32 43 17 23 1026.8 1026.8 1.2
24/07:00pm 13.0 6.9 10.3 84 1.4 WSW 33 39 18 21 1026.7 1026.7 1.2
24/06:30pm 12.1 5.8 11.1 94 0.5 WSW 35 43 19 23 1026.7 1026.7 1.2
24/06:21pm 12.2 6.5 11.0 92 0.6 WSW 32 43 17 23 1026.6 1026.6 1.0
24/06:00pm 12.9 6.6 11.2 89 0.9 WSW 35 43 19 23 1026.3 1026.3 0.4
24/05:30pm 12.2 8.1 10.2 87 1.0 WSW 22 28 12 15 1026.3 1026.3 0.4
24/05:00pm 12.1 7.0 10.7 91 0.7 WSW 28 37 15 20 1026.2 1026.2 0.4
24/04:30pm 13.5 7.9 8.7 73 2.4 WSW 28 35 15 19 1026.0 1026.0 0.2
24/04:00pm 13.8 8.8 9.5 75 2.2 WSW 26 37 14 20 1025.9 1025.9 0.2
24/03:30pm 13.4 9.0 9.0 75 2.2 WSW 22 28 12 15 1026.0 1026.0 0.2
24/03:00pm 12.7 6.3 10.8 88 1.0 WSW 35 44 19 24 1026.3 1026.3 0.2
24/02:49pm 13.5 8.1 9.6 77 2.0 WSW 28 48 15 26 1026.2 1026.2 0.2
24/02:30pm 13.6 10.8 9.9 78 1.9 W 15 30 8 16 1026.2 1026.2 0.2
24/02:00pm 12.1 6.0 9.9 86 1.1 WSW 32 37 17 20 1026.4 1026.4 0.2
24/01:30pm 12.9 9.0 9.5 80 1.7 WNW 20 26 11 14 1026.5 1026.5 0.2
24/01:00pm 13.2 8.6 8.3 72 2.4 W 22 28 12 15 1026.7 1026.7 0.2
24/12:30pm 14.3 9.4 8.3 67 3.0 WSW 24 32 13 17 1027.0 1027.0 0.0
24/12:00pm 13.1 6.8 7.5 69 2.7 WSW 30 37 16 20 1027.4 1027.4 0.0
24/11:30am 13.1 9.2 7.3 68 2.8 W 17 28 9 15 1027.7 1027.7 0.0
24/11:00am 12.9 7.9 8.2 73 2.3 SW 24 33 13 18 1027.9 1027.9 0.0
24/10:30am 12.7 10.6 9.7 82 1.5 SSW 11 17 6 9 1028.1 1028.1 0.0
24/10:00am 12.6 6.9 8.3 75 2.1 WSW 28 35 15 19 1028.1 1028.1 0.0
24/09:30am 13.1 7.9 5.6 60 3.5 SW 22 30 12 16 1027.9 1027.9 0.0
24/09:00am 12.8 7.8 6.5 65 3.0 WSW 22 30 12 16 1027.8 1027.8 0.0
24/08:30am 12.6 7.9 5.2 60 3.4 SW 19 24 10 13 1027.6 1027.6 0.0
24/08:00am 12.6 7.7 4.9 59 3.5 SW 20 30 11 16 1027.5 1027.5 0.0
24/07:30am 12.5 8.3 5.9 64 3.1 SW 17 28 9 15 1027.2 1027.2 0.0
24/07:00am 12.7 7.5 5.6 62 3.3 SW 22 28 12 15 1026.8 1026.8 0.0
24/06:30am 12.6 8.8 5.7 63 3.2 SW 15 19 8 10 1026.4 1026.4 0.0
24/06:00am 12.6 8.5 6.0 64 3.1 SW 17 30 9 16 1026.1 1026.1 0.0
24/05:30am 12.6 7.4 5.5 62 3.3 WSW 22 30 12 16 1026.1 1026.1 0.0
24/05:00am 12.3 8.7 6.8 69 2.6 W 15 24 8 13 1026.1 1026.1 0.0
24/04:30am 12.7 7.0 6.6 66 2.9 SW 26 35 14 19 1025.9 1025.9 0.0
24/04:00am 12.5 8.3 5.6 63 3.2 WSW 17 24 9 13 1026.1 1026.1 0.0
24/03:30am 11.8 6.6 7.4 74 2.1 SW 24 32 13 17 1026.3 1026.3 0.0
24/03:00am 11.7 7.0 6.1 68 2.6 SW 20 30 11 16 1026.3 1026.3 0.0
24/02:30am 11.8 5.1 7.4 74 2.1 SSW 32 39 17 21 1026.4 1026.4 0.0
24/02:00am 12.6 7.7 3.9 55 3.9 SSW 19 26 10 14 1026.3 1026.3 0.0
24/01:30am 12.7 7.2 4.0 55 3.9 SW 22 30 12 16 1026.4 1026.4 0.0
24/01:00am 12.5 7.2 4.8 59 3.5 S 22 28 12 15 1026.3 1026.3 0.0
24/12:30am 12.6 7.3 5.2 60 3.4 SSW 22 30 12 16 1026.3 1026.3 0.0
24/12:00am 12.1 6.3 4.6 60 3.4 SSW 24 30 13 16 1026.5 1026.5 0.0
 
Date/Time
WST
Temp
°C
App
Temp
°C
Dew
Point
°C
Rel
Hum
%
Delta-T
°C
Wind Press
QNH
hPa
Press
MSL
hPa
Rain since
9am
mm
Dir  Spd
km/h
Gust
km/h
Spd
kts
Gust
kts
23/11:30pm 12.0 5.7 5.7 65 2.9 SSW 28 35 15 19 1026.7 1026.7 0.0
23/11:00pm 12.0 6.5 5.7 65 2.9 SSW 24 35 13 19 1026.7 1026.7 0.0
23/10:30pm 11.4 6.7 5.3 66 2.8 SSW 19 24 10 13 1026.7 1026.7 0.0
23/10:00pm 11.4 3.6 6.5 72 2.3 SSW 37 46 20 25 1026.7 1026.7 0.0
23/09:30pm 11.6 3.8 5.0 64 3.0 SSW 35 44 19 24 1026.5 1026.5 0.0
23/09:00pm 12.1 6.8 4.8 61 3.3 S 22 30 12 16 1026.2 1026.2 0.0
23/08:30pm 11.9 5.9 3.2 55 3.8 SSW 24 33 13 18 1026.0 1026.0 0.0
23/08:00pm 12.2 5.4 3.3 54 3.9 SSW 28 39 15 21 1026.0 1026.0 0.0
23/07:30pm 12.0 4.7 2.5 52 4.1 S 30 39 16 21 1025.8 1025.8 0.0
23/07:00pm 12.2 5.0 2.8 52 4.1 S 30 39 16 21 1025.4 1025.4 0.0
23/06:30pm 12.2 5.0 2.8 52 4.1 SSW 30 39 16 21 1025.1 1025.1 0.0
23/06:00pm 11.8 4.4 5.0 63 3.1 SSW 33 44 18 24 1024.9 1024.9 0.0
23/05:30pm 11.8 4.0 6.5 70 2.5 SSW 37 52 20 28 1024.6 1024.6 0.0
23/05:26pm 12.0 4.9 6.5 69 2.6 SSW 33 52 18 28 1024.6 1024.6 0.0
23/05:00pm 12.0 5.8 4.2 59 3.5 S 26 39 14 21 1024.4 1024.4 0.0
23/04:30pm 11.9 3.6 4.3 59 3.4 SSW 37 44 20 24 1024.4 1024.4 0.0
23/04:00pm 13.0 5.6 2.1 47 4.7 SSW 30 37 16 20 1024.0 1024.0 0.0
23/03:30pm 12.3 5.0 4.6 59 3.5 SSW 32 43 17 23 1023.8 1023.8 0.0
23/03:10pm 11.7 4.2 6.4 70 2.5 SSW 35 54 19 29 1023.7 1023.7 0.0
23/03:00pm 12.4 4.0 5.5 63 3.2 SSW 39 54 21 29 1023.6 1023.6 0.0
23/02:30pm 13.8 6.7 5.5 57 3.9 SSW 32 43 17 23 1023.5 1023.5 0.0
23/02:00pm 12.5 5.1 5.1 60 3.4 SSW 33 46 18 25 1023.2 1023.2 0.0
23/01:30pm 13.6 6.6 6.2 61 3.5 SW 32 41 17 22 1023.2 1023.2 0.0
23/01:00pm 12.7 4.5 4.8 58 3.6 SSW 37 50 20 27 1023.3 1023.3 0.0
23/12:30pm 13.8 5.6 4.9 55 4.1 SSW 37 44 20 24 1023.4 1023.4 0.0
23/12:00pm 14.3 6.2 5.1 54 4.3 SW 37 48 20 26 1023.4 1023.4 0.0
23/11:30am 13.2 3.8 4.7 56 3.9 SSW 43 52 23 28 1023.5 1023.5 0.0
23/11:00am 13.6 4.5 4.1 52 4.3 SW 41 54 22 29 1023.2 1023.2 0.0
23/10:30am 13.0 3.7 5.2 59 3.6 SW 43 56 23 30 1023.1 1023.1 0.0
23/10:00am 13.1 3.6 6.8 65 3.0 SW 46 56 25 30 1022.7 1022.7 0.0
23/09:30am 12.7 2.4 6.6 66 2.9 SW 50 67 27 36 1022.2 1022.2 0.0
23/09:00am 12.2 2.5 9.0 81 1.6 SW 50 65 27 35 1021.9 1021.9 2.0
23/08:30am 11.9 3.2 10.1 89 0.9 SW 46 65 25 35 1021.5 1021.5 2.0
23/08:21am 12.3 3.7 10.4 88 1.0 SW 46 65 25 35 1021.2 1021.2 1.8
23/08:00am 12.7 2.6 10.4 86 1.2 SW 54 65 29 35 1020.8 1020.8 1.8
23/07:50am 12.5 4.0 10.8 89 0.9 W 46 65 25 35 1020.8 1020.8 1.2
23/07:30am 13.6 4.2 10.1 79 1.8 W 50 59 27 32 1020.3 1020.3 0.6
23/07:00am 12.9 3.9 10.4 85 1.3 W 48 57 26 31 1020.3 1020.3 0.6
23/06:47am 12.9 3.5 10.0 82 1.5 W 50 70 27 38 1020.4 1020.4 0.4
23/06:30am 13.5 3.6 8.3 71 2.6 W 50 59 27 32 1020.2 1020.2 0.4
23/06:00am 13.8 4.3 6.7 62 3.4 W 46 56 25 30 1020.4 1020.4 0.4
23/05:30am 13.5 3.2 6.6 63 3.3 W 50 59 27 32 1020.4 1020.4 0.4
23/05:00am 12.8 3.6 7.9 72 2.4 W 46 61 25 33 1020.6 1020.6 0.4
23/04:49am 12.9 3.5 8.9 76 2.0 W 48 69 26 37 1020.6 1020.6 0.4
23/04:30am 12.9 1.8 8.2 73 2.3 W 56 67 30 36 1020.7 1020.7 0.4
23/04:00am 12.9 3.3 8.0 72 2.4 W 48 61 26 33 1020.9 1020.9 0.4
23/03:30am 13.6 4.0 6.2 61 3.5 W 46 59 25 32 1021.1 1021.1 0.4
23/03:00am 13.5 4.1 5.4 58 3.8 WNW 44 52 24 28 1021.4 1021.4 0.4
23/02:30am 13.4 4.9 7.0 65 3.1 W 41 50 22 27 1021.8 1021.8 0.4
23/02:00am 13.0 4.7 4.4 56 3.9 W 37 46 20 25 1021.6 1021.6 0.4
23/01:36am 12.1 3.8 6.1 67 2.8 W 39 57 21 31 1022.0 1022.0 0.4
23/01:30am 11.4 2.0 7.2 75 2.0 W 46 57 25 31 1022.1 1022.1 0.4
23/01:19am 12.6 5.4 7.7 72 2.4 W 35 54 19 29 1022.0 1022.0 0.4
23/01:00am 12.6 5.6 7.0 68 2.7 W 33 41 18 22 1022.2 1022.2 0.4
23/12:30am 12.3 5.5 6.8 69 2.6 W 32 43 17 23 1022.3 1022.3 0.4
23/12:00am 11.6 7.5 8.8 83 1.4 WNW 20 28 11 15 1022.7 1022.7 0.4
 
Date/Time
WST
Temp
°C
App
Temp
°C
Dew
Point
°C
Rel
Hum
%
Delta-T
°C
Wind Press
QNH
hPa
Press
MSL
hPa
Rain since
9am
mm
Dir  Spd
km/h
Gust
km/h
Spd
kts
Gust
kts
22/11:37pm 12.0 6.2 7.9 76 2.0 W 28 46 15 25 1022.7 1022.7 0.4
22/11:30pm 12.0 6.5 6.0 66 2.8 W 24 32 13 17 1022.7 1022.7 0.4
22/11:00pm 12.1 7.0 6.1 67 2.8 W 22 30 12 16 1022.9 1022.9 0.4
22/10:30pm 11.8 7.9 7.2 73 2.2 WSW 17 30 9 16 1023.0 1023.0 0.4
22/10:00pm 11.8 6.4 6.3 69 2.6 WSW 24 28 13 15 1023.3 1023.3 0.4
22/09:30pm 11.9 5.0 7.1 72 2.3 WSW 33 41 18 22 1023.4 1023.4 0.4
22/09:00pm 11.7 6.1 5.4 65 2.9 WNW 24 32 13 17 1023.6 1023.6 0.4
22/08:30pm 12.3 6.9 4.6 59 3.5 W 22 32 12 17 1023.6 1023.6 0.4
22/08:00pm 11.9 8.3 4.9 62 3.2 WSW 13 19 7 10 1023.6 1023.6 0.4
22/07:30pm 12.1 7.5 5.4 63 3.1 SW 19 28 10 15 1023.6 1023.6 0.4
22/07:00pm 12.2 7.3 5.2 62 3.2 WSW 20 24 11 13 1023.5 1023.5 0.4
22/06:30pm 12.1 8.1 4.9 61 3.3 W 15 20 8 11 1023.3 1023.3 0.4
22/06:00pm 12.2 7.2 4.5 59 3.5 SW 20 26 11 14 1023.3 1023.3 0.4
22/05:30pm 12.1 7.7 2.9 53 4.0 SW 15 20 8 11 1023.3 1023.3 0.4
22/05:00pm 12.7 7.6 3.2 52 4.2 WSW 19 20 10 11 1023.3 1023.3 0.4
22/04:30pm 12.6 7.7 3.9 55 3.9 SW 19 28 10 15 1023.4 1023.4 0.4
22/04:00pm 12.7 7.5 3.7 54 4.0 SW 20 28 11 15 1023.4 1023.4 0.4
22/03:30pm 13.9 8.5 2.5 46 5.0 WSW 20 26 11 14 1023.4 1023.4 0.4
22/03:00pm 13.9 8.2 2.8 47 4.9 WSW 22 32 12 17 1023.1 1023.1 0.4
22/02:30pm 14.2 9.1 3.3 48 4.9 WSW 19 28 10 15 1023.1 1023.1 0.4
22/02:00pm 13.8 7.7 3.0 48 4.8 WSW 24 32 13 17 1023.2 1023.2 0.4
22/01:30pm 13.1 7.5 3.4 51 4.3 SW 22 28 12 15 1023.3 1023.3 0.4
22/01:00pm 13.5 8.4 4.3 53 4.2 SW 20 30 11 16 1023.6 1023.6 0.4
22/12:30pm 13.6 9.2 4.7 55 4.1 S 17 26 9 14 1023.8 1023.8 0.4
22/12:00pm 12.5 6.0 4.6 58 3.6 SSW 28 35 15 19 1023.9 1023.9 0.4
22/11:30am 11.4 6.1 7.0 74 2.1 SSW 24 33 13 18 1024.1 1024.1 0.4
22/11:00am 13.0 7.5 6.0 62 3.3 SSW 24 32 13 17 1024.0 1024.0 0.0
22/10:30am 13.1 7.3 4.6 56 3.9 SW 24 35 13 19 1023.7 1023.7 0.0
22/10:00am 13.0 7.1 3.9 54 4.1 SW 24 32 13 17 1023.5 1023.5 0.0
22/09:30am 12.2 5.6 4.2 58 3.6 SSW 28 37 15 20 1023.0 1023.0 0.0
22/09:00am 12.1 5.4 3.5 55 3.8 SSW 28 37 15 20 1022.4 1022.4 6.4
22/08:30am 12.2 6.2 3.4 55 3.9 SSW 24 32 13 17 1021.9 1021.9 6.4
22/08:00am 11.7 6.2 4.1 59 3.4 S 22 35 12 19 1021.5 1021.5 6.4
22/07:30am 11.3 4.2 5.7 68 2.6 SSW 32 41 17 22 1021.3 1021.3 6.4
22/07:00am 11.3 4.0 4.6 63 3.0 SSW 32 44 17 24 1020.8 1020.8 6.4
22/06:30am 11.2 3.8 4.0 61 3.2 SSW 32 43 17 23 1020.5 1020.5 6.4
22/06:00am 10.9 3.1 4.9 66 2.7 SSW 35 44 19 24 1020.2 1020.2 6.4
22/05:45am 10.9 3.9 6.2 73 2.2 SW 32 50 17 27 1020.0 1020.0 6.4
22/05:30am 10.1 3.8 5.7 74 2.0 SW 28 44 15 24 1020.0 1020.0 6.4
22/05:00am 11.0 3.4 4.0 62 3.1 SSW 33 43 18 23 1019.7 1019.7 6.2
22/04:30am 11.3 3.5 4.7 64 3.0 SSW 35 44 19 24 1019.4 1019.4 6.2

Other Formats:

Comma delimited format used in spreadsheet applications
http://www.bom.gov.au/fwo/IDW60801/IDW60801.94601.axf

JavaScript Object Notation format (JSON) in row-major order
http://www.bom.gov.au/fwo/IDW60801/IDW60801.94601.json